createdAt,value
2019-01-25T00:00:07.222Z,-4.56
2019-01-25T00:02:36.112Z,-4.51
2019-01-25T00:05:05.094Z,-4.62
2019-01-25T00:07:33.703Z,-4.64
2019-01-25T00:10:02.337Z,-4.70
2019-01-25T00:12:31.251Z,-4.63
2019-01-25T00:15:00.204Z,-4.70
2019-01-25T00:17:29.032Z,-4.67
2019-01-25T00:19:57.658Z,-4.66
2019-01-25T00:22:26.505Z,-4.65
2019-01-25T00:24:55.127Z,-4.62
2019-01-25T00:27:23.976Z,-4.50
2019-01-25T00:29:52.589Z,-4.49
2019-01-25T00:32:21.202Z,-4.54
2019-01-25T00:34:50.129Z,-4.48
2019-01-25T00:37:18.722Z,-4.47
2019-01-25T00:39:47.342Z,-4.55
2019-01-25T00:42:15.923Z,-4.51
2019-01-25T00:44:44.538Z,-4.50
2019-01-25T00:47:13.135Z,-4.47
2019-01-25T00:49:41.747Z,-4.42
2019-01-25T00:52:10.361Z,-4.38
2019-01-25T00:54:38.992Z,-4.42
2019-01-25T00:57:07.869Z,-4.50
2019-01-25T00:59:36.479Z,-4.58
2019-01-25T01:02:05.443Z,-4.56
2019-01-25T01:04:34.438Z,-4.58
2019-01-25T01:07:03.044Z,-4.49
2019-01-25T01:09:31.669Z,-4.41
2019-01-25T01:12:00.263Z,-4.39
2019-01-25T01:14:28.874Z,-4.34
2019-01-25T01:16:57.459Z,-4.42
2019-01-25T01:19:26.075Z,-4.38
2019-01-25T01:21:54.696Z,-4.41
2019-01-25T01:24:23.599Z,-4.46
2019-01-25T01:26:52.222Z,-4.44
2019-01-25T01:29:21.176Z,-4.50
2019-01-25T01:31:50.155Z,-4.45
2019-01-25T01:34:18.760Z,-4.45
2019-01-25T01:36:47.762Z,-4.49
2019-01-25T01:39:16.728Z,-4.42
2019-01-25T01:41:45.350Z,-4.36
2019-01-25T01:44:13.955Z,-4.34
2019-01-25T01:46:42.575Z,-4.26
2019-01-25T01:49:11.458Z,-4.24
2019-01-25T01:51:40.072Z,-4.24
2019-01-25T01:54:08.856Z,-4.26
2019-01-25T01:56:37.821Z,-4.32
2019-01-25T01:59:06.707Z,-4.47
2019-01-25T02:01:35.320Z,-4.47
2019-01-25T02:04:03.950Z,-4.41
2019-01-25T02:06:32.592Z,-4.40
2019-01-25T02:09:01.210Z,-4.36
2019-01-25T02:11:29.802Z,-4.33
2019-01-25T02:13:58.710Z,-4.30
2019-01-25T02:16:27.319Z,-4.25
2019-01-25T02:18:55.937Z,-4.45
2019-01-25T02:21:24.583Z,-4.47
2019-01-25T02:23:53.546Z,-4.42
2019-01-25T02:26:22.165Z,-4.31
2019-01-25T02:28:50.769Z,-4.35
2019-01-25T02:31:19.376Z,-4.30
2019-01-25T02:33:47.977Z,-4.31
2019-01-25T02:36:16.585Z,-4.44
2019-01-25T02:38:45.542Z,-4.37
2019-01-25T02:41:14.176Z,-4.37
2019-01-25T02:43:42.765Z,-4.43
2019-01-25T02:46:11.376Z,-4.42
2019-01-25T02:48:40.330Z,-4.58
2019-01-25T02:51:09.268Z,-4.59
2019-01-25T02:53:38.159Z,-4.56
2019-01-25T02:56:07.075Z,-4.63
2019-01-25T02:58:35.656Z,-4.51
2019-01-25T03:03:42.837Z,-4.44
2019-01-25T03:06:11.447Z,-4.30
2019-01-25T03:08:40.037Z,-4.36
2019-01-25T03:11:08.667Z,-4.26
2019-01-25T03:13:37.561Z,-4.29
2019-01-25T03:16:06.176Z,-4.33
2019-01-25T03:18:34.778Z,-4.38
2019-01-25T03:21:05.008Z,-4.40
2019-01-25T03:23:31.997Z,-4.37
2019-01-25T03:26:00.627Z,-4.42
2019-01-25T03:28:29.237Z,-4.42
2019-01-25T03:30:58.144Z,-4.50
2019-01-25T03:33:26.753Z,-4.46
2019-01-25T03:35:55.417Z,-4.46
2019-01-25T03:38:24.298Z,-4.30
2019-01-25T03:40:55.143Z,-4.25
2019-01-25T03:43:21.892Z,-4.38
2019-01-25T03:45:50.513Z,-4.36
2019-01-25T03:48:19.543Z,-4.38
2019-01-25T03:50:48.454Z,-4.38
2019-01-25T03:53:17.039Z,-4.46
2019-01-25T03:55:45.672Z,-4.44
2019-01-25T03:58:14.283Z,-4.53
2019-01-25T04:00:43.168Z,-4.45
2019-01-25T04:03:12.058Z,-4.35
2019-01-25T04:05:40.691Z,-4.39
2019-01-25T04:08:09.287Z,-4.38
2019-01-25T04:10:37.889Z,-4.44
2019-01-25T04:13:06.495Z,-4.52
2019-01-25T04:15:35.100Z,-4.55
2019-01-25T04:18:03.711Z,-4.46
2019-01-25T04:20:32.320Z,-4.40
2019-01-25T04:23:00.953Z,-4.45
2019-01-25T04:25:29.895Z,-4.48
2019-01-25T04:27:58.517Z,-4.50
2019-01-25T04:30:27.149Z,-4.55
2019-01-25T04:32:55.782Z,-4.55
2019-01-25T04:35:24.395Z,-4.55
2019-01-25T04:37:53.035Z,-4.50
2019-01-25T04:40:22.011Z,-4.56
2019-01-25T04:42:51.001Z,-4.60
2019-01-25T04:45:19.636Z,-4.48
2019-01-25T04:47:48.264Z,-4.41
2019-01-25T04:50:19.934Z,-4.50
2019-01-25T04:52:48.909Z,-4.48
2019-01-25T04:55:26.868Z,-4.42
2019-01-25T04:57:55.508Z,-4.54
2019-01-25T05:00:24.125Z,-4.55
2019-01-25T05:02:55.833Z,-4.58
2019-01-25T05:05:24.816Z,-4.63
2019-01-25T05:07:53.842Z,-4.58
2019-01-25T05:10:22.458Z,-4.51
2019-01-25T05:12:53.119Z,-4.46
2019-01-25T05:15:19.724Z,-4.50
2019-01-25T05:17:51.436Z,-4.47
2019-01-25T05:20:20.043Z,-4.52
2019-01-25T05:22:48.986Z,-4.54
2019-01-25T05:25:17.617Z,-4.59
2019-01-25T05:27:46.235Z,-4.48
2019-01-25T05:30:14.847Z,-4.47
2019-01-25T05:32:43.482Z,-4.48
2019-01-25T05:35:12.397Z,-4.42
2019-01-25T05:37:41.013Z,-4.37
2019-01-25T05:40:09.648Z,-4.42
2019-01-25T05:42:38.296Z,-4.44
2019-01-25T05:45:10.159Z,-4.43
2019-01-25T05:47:38.782Z,-4.42
2019-01-25T05:50:07.679Z,-4.51
2019-01-25T05:52:36.565Z,-4.46
2019-01-25T05:55:06.246Z,-4.54
2019-01-25T05:57:34.078Z,-4.52
2019-01-25T06:00:02.967Z,-4.49
2019-01-25T06:02:31.590Z,-4.42
2019-01-25T06:05:00.214Z,-4.48
2019-01-25T06:07:28.849Z,-4.46
2019-01-25T06:09:57.456Z,-4.45
2019-01-25T06:12:26.449Z,-4.38
2019-01-25T06:14:55.046Z,-4.42
2019-01-25T06:17:23.665Z,-4.43
2019-01-25T06:19:52.275Z,-4.43
2019-01-25T06:22:21.256Z,-4.46
2019-01-25T06:24:50.171Z,-4.52
2019-01-25T06:27:19.161Z,-4.48
2019-01-25T06:29:47.771Z,-4.43
2019-01-25T06:32:16.738Z,-4.47
2019-01-25T06:34:45.628Z,-4.41
2019-01-25T06:37:14.522Z,-4.45
2019-01-25T06:39:43.398Z,-4.30
2019-01-25T06:42:12.392Z,-4.31
2019-01-25T06:44:41.002Z,-4.40
2019-01-25T06:47:09.621Z,-4.44
2019-01-25T06:49:38.226Z,-4.50
2019-01-25T06:52:06.831Z,-4.45
2019-01-25T06:54:35.430Z,-4.52
2019-01-25T06:57:04.063Z,-4.52
2019-01-25T06:59:32.976Z,-4.29
2019-01-25T07:02:01.565Z,-4.30
2019-01-25T07:04:30.340Z,-4.27
2019-01-25T07:06:58.948Z,-4.37
2019-01-25T07:09:27.822Z,-4.41
2019-01-25T07:11:56.421Z,-4.33
2019-01-25T07:14:25.029Z,-4.22
2019-01-25T07:16:53.649Z,-4.29
2019-01-25T07:19:22.268Z,-4.28
2019-01-25T07:21:50.881Z,-4.24
2019-01-25T07:24:19.504Z,-4.21
2019-01-25T07:26:48.399Z,-4.26
2019-01-25T07:29:17.301Z,-4.33
2019-01-25T07:31:46.389Z,-4.28
2019-01-25T07:34:14.483Z,-4.37
2019-01-25T07:36:43.453Z,-4.33
2019-01-25T07:41:50.653Z,-4.16
2019-01-25T07:44:19.246Z,-4.20
2019-01-25T07:46:48.216Z,-4.22
2019-01-25T07:49:16.817Z,-4.25
2019-01-25T07:51:45.440Z,-4.21
2019-01-25T07:54:14.077Z,-4.27
2019-01-25T07:56:42.676Z,-4.20
2019-01-25T07:59:11.625Z,-4.19
2019-01-25T08:01:40.240Z,-4.10
2019-01-25T08:04:08.864Z,-4.19
2019-01-25T08:06:37.478Z,-4.07
2019-01-25T08:09:06.485Z,-4.05
2019-01-25T08:11:35.061Z,-4.00
2019-01-25T08:14:04.061Z,-4.10
2019-01-25T08:16:32.935Z,-4.04
2019-01-25T08:19:01.538Z,-3.94
2019-01-25T08:21:30.141Z,-3.98
2019-01-25T08:23:58.763Z,-3.90
2019-01-25T08:26:27.365Z,-3.93
2019-01-25T08:28:56.235Z,-3.89
2019-01-25T08:31:24.845Z,-3.83
2019-01-25T08:33:53.460Z,-3.84
2019-01-25T08:36:22.113Z,-3.83
2019-01-25T08:38:50.693Z,-3.85
2019-01-25T08:41:19.559Z,-3.82
2019-01-25T08:43:48.185Z,-3.91
2019-01-25T08:46:16.781Z,-3.91
2019-01-25T08:48:45.393Z,-3.87
2019-01-25T08:51:14.101Z,-3.81
2019-01-25T08:53:42.715Z,-3.84
2019-01-25T08:56:11.655Z,-3.90
2019-01-25T08:58:40.883Z,-3.85
2019-01-25T09:01:09.495Z,-3.73
2019-01-25T09:03:38.119Z,-3.79
2019-01-25T09:06:06.738Z,-3.73
2019-01-25T09:08:35.338Z,-3.68
2019-01-25T09:11:04.271Z,-3.63
2019-01-25T09:13:33.263Z,-3.59
2019-01-25T09:16:02.304Z,-3.52
2019-01-25T09:18:30.913Z,-3.44
2019-01-25T09:20:59.855Z,-3.50
2019-01-25T09:23:28.818Z,-3.53
2019-01-25T09:26:01.131Z,-3.54
2019-01-25T09:28:26.318Z,-3.60
2019-01-25T09:30:54.942Z,-3.52
2019-01-25T09:33:23.563Z,-3.40
2019-01-25T09:35:52.171Z,-3.38
2019-01-25T09:38:20.784Z,-3.47
2019-01-25T09:40:49.397Z,-3.39
2019-01-25T09:43:17.991Z,-3.37
2019-01-25T09:45:46.616Z,-3.48
2019-01-25T09:48:15.555Z,-3.42
2019-01-25T09:50:44.180Z,-3.42
2019-01-25T09:53:12.792Z,-3.42
2019-01-25T09:55:41.708Z,-3.43
2019-01-25T09:58:10.372Z,-3.47
2019-01-25T10:00:39.020Z,-3.48
2019-01-25T10:03:07.967Z,-3.46
2019-01-25T10:05:36.954Z,-3.42
2019-01-25T10:08:05.546Z,-3.27
2019-01-25T10:10:34.166Z,-3.32
2019-01-25T10:13:02.805Z,-3.20
2019-01-25T10:15:31.789Z,-3.20
2019-01-25T10:18:00.380Z,-3.17
2019-01-25T10:20:29.107Z,-3.35
2019-01-25T10:22:57.713Z,-3.21
2019-01-25T10:25:26.345Z,-3.16
2019-01-25T10:27:54.949Z,-3.32
2019-01-25T10:30:23.898Z,-3.22
2019-01-25T10:32:52.778Z,-3.07
2019-01-25T10:35:21.782Z,-3.03
2019-01-25T10:37:50.402Z,-3.11
2019-01-25T10:40:21.830Z,-3.04
2019-01-25T10:42:53.242Z,-3.04
2019-01-25T10:48:09.495Z,-2.93
2019-01-25T10:50:38.459Z,-2.92
2019-01-25T10:53:07.448Z,-2.92
2019-01-25T10:55:36.075Z,-2.91
2019-01-25T10:58:05.025Z,-2.97
2019-01-25T11:00:33.683Z,-2.90
2019-01-25T11:03:02.588Z,-2.78
2019-01-25T11:05:31.580Z,-2.87
2019-01-25T11:08:00.469Z,-2.98
2019-01-25T11:10:29.130Z,-3.09
2019-01-25T11:13:00.978Z,-3.10
2019-01-25T11:15:26.371Z,-3.13
2019-01-25T11:17:54.970Z,-3.07
2019-01-25T11:20:23.627Z,-2.95
2019-01-25T11:22:52.269Z,-2.92
2019-01-25T11:25:29.654Z,-2.93
2019-01-25T11:27:58.255Z,-2.90
2019-01-25T11:30:26.893Z,-2.85
2019-01-25T11:32:55.824Z,-2.80
2019-01-25T11:35:24.452Z,-2.92
2019-01-25T11:37:53.054Z,-2.80
2019-01-25T11:40:21.961Z,-2.89
2019-01-25T11:42:50.576Z,-2.94
2019-01-25T11:45:19.563Z,-2.85
2019-01-25T11:47:48.516Z,-2.92
2019-01-25T11:52:55.678Z,-2.85
2019-01-25T11:55:24.289Z,-2.96
2019-01-25T11:57:52.890Z,-2.92
2019-01-25T12:03:00.451Z,-2.88
2019-01-25T12:05:29.067Z,-2.77
2019-01-25T12:07:57.957Z,-2.61
2019-01-25T12:10:29.613Z,-2.56
2019-01-25T12:12:58.221Z,-2.48
2019-01-25T12:15:26.836Z,-2.62
2019-01-25T12:17:55.762Z,-2.69
2019-01-25T12:23:02.948Z,-2.72
2019-01-25T12:25:31.849Z,-2.76
2019-01-25T12:28:05.210Z,-2.76
2019-01-25T12:30:37.905Z,-2.71
2019-01-25T12:33:04.142Z,-2.55
2019-01-25T12:35:38.985Z,-2.64
2019-01-25T12:38:07.595Z,-2.53
2019-01-25T12:40:36.202Z,-2.37
2019-01-25T12:43:04.821Z,-2.50
2019-01-25T12:45:33.432Z,-2.50
2019-01-25T12:48:02.034Z,-2.42
2019-01-25T12:50:36.662Z,-2.39
2019-01-25T12:53:05.596Z,-2.32
2019-01-25T12:55:34.220Z,-2.31
2019-01-25T12:58:03.212Z,-2.36
2019-01-25T13:00:31.843Z,-2.42
2019-01-25T13:03:00.422Z,-2.40
2019-01-25T13:05:29.056Z,-2.52
2019-01-25T13:07:57.645Z,-2.48
2019-01-25T13:10:26.591Z,-2.49
2019-01-25T13:12:55.185Z,-2.43
2019-01-25T13:15:23.808Z,-2.44
2019-01-25T13:17:52.414Z,-2.32
2019-01-25T13:20:30.432Z,-2.36
2019-01-25T13:22:59.071Z,-2.25
2019-01-25T13:25:27.678Z,-2.34
2019-01-25T13:27:56.611Z,-2.39
2019-01-25T13:30:28.505Z,-2.56
2019-01-25T13:32:57.123Z,-2.58
2019-01-25T13:35:25.714Z,-2.46
2019-01-25T13:37:54.605Z,-2.60
2019-01-25T13:40:23.597Z,-2.63
2019-01-25T13:42:52.585Z,-2.59
2019-01-25T13:45:21.303Z,-2.57
2019-01-25T13:47:49.915Z,-2.49
2019-01-25T13:50:27.886Z,-2.36
2019-01-25T13:52:56.842Z,-2.33
2019-01-25T13:55:25.838Z,-2.40
2019-01-25T13:57:54.455Z,-2.35
2019-01-25T14:00:29.083Z,-2.41
2019-01-25T14:02:57.687Z,-2.42
2019-01-25T14:05:26.609Z,-2.60
2019-01-25T14:07:55.246Z,-2.43
2019-01-25T14:10:27.099Z,-2.39
2019-01-25T14:12:56.043Z,-2.51
2019-01-25T14:15:24.648Z,-2.51
2019-01-25T14:17:53.638Z,-2.61
2019-01-25T14:20:23.478Z,-2.68
2019-01-25T14:22:50.918Z,-2.80
2019-01-25T14:25:19.521Z,-2.92
2019-01-25T14:27:48.451Z,-2.93
2019-01-25T14:33:07.874Z,-2.80
2019-01-25T14:35:36.829Z,-2.93
2019-01-25T14:38:05.813Z,-2.77
2019-01-25T14:40:34.466Z,-2.67
2019-01-25T14:43:03.388Z,-2.88
2019-01-25T14:45:32.410Z,-2.93
2019-01-25T14:48:01.047Z,-2.83
2019-01-25T14:50:29.671Z,-2.92
2019-01-25T14:52:58.341Z,-2.94
2019-01-25T14:55:26.998Z,-3.03
2019-01-25T14:57:55.634Z,-3.10
2019-01-25T15:00:24.232Z,-3.09
2019-01-25T15:02:53.183Z,-3.24
2019-01-25T15:05:21.831Z,-3.32
2019-01-25T15:07:50.463Z,-3.29
2019-01-25T15:10:19.109Z,-3.13
2019-01-25T15:12:47.736Z,-3.40
2019-01-25T15:15:16.356Z,-3.56
2019-01-25T15:17:45.270Z,-3.50
2019-01-25T15:20:13.903Z,-3.54
2019-01-25T15:22:42.844Z,-3.54
2019-01-25T15:25:11.724Z,-3.54
2019-01-25T15:27:40.339Z,-3.52
2019-01-25T15:30:09.307Z,-3.62
2019-01-25T15:32:37.913Z,-3.52
2019-01-25T15:35:06.546Z,-3.66
2019-01-25T15:37:35.182Z,-3.50
2019-01-25T15:40:04.138Z,-3.49
2019-01-25T15:42:32.760Z,-3.70
2019-01-25T15:45:01.368Z,-3.72
2019-01-25T15:47:30.295Z,-3.85
2019-01-25T15:49:58.915Z,-3.85
2019-01-25T15:52:27.884Z,-3.91
2019-01-25T15:54:56.511Z,-4.14
2019-01-25T15:57:25.130Z,-4.12
2019-01-25T15:59:53.737Z,-4.09
2019-01-25T16:02:22.704Z,-4.09
2019-01-25T16:04:51.329Z,-4.06
2019-01-25T16:07:19.946Z,-4.02
2019-01-25T16:09:48.552Z,-4.00
2019-01-25T16:12:17.184Z,-3.99
2019-01-25T16:14:46.225Z,-3.89
2019-01-25T16:17:14.864Z,-4.00
2019-01-25T16:19:43.806Z,-4.09
2019-01-25T16:22:12.466Z,-4.01
2019-01-25T16:27:29.233Z,-4.07
2019-01-25T16:29:58.199Z,-4.07
2019-01-25T16:32:27.200Z,-4.08
2019-01-25T16:34:55.818Z,-4.02
2019-01-25T16:37:24.758Z,-3.95
2019-01-25T16:39:53.378Z,-3.87
2019-01-25T16:42:23.352Z,-4.00
2019-01-25T16:44:51.959Z,-4.11
2019-01-25T16:47:20.924Z,-3.96
2019-01-25T16:49:49.839Z,-3.95
2019-01-25T16:52:18.499Z,-3.99
2019-01-25T16:54:47.390Z,-3.98
2019-01-25T16:57:16.023Z,-4.14
2019-01-25T16:59:44.632Z,-4.14
2019-01-25T17:02:13.257Z,-4.14
2019-01-25T17:04:41.891Z,-4.11
2019-01-25T17:07:10.821Z,-4.04
2019-01-25T17:09:39.719Z,-4.07
2019-01-25T17:12:08.686Z,-3.95
2019-01-25T17:14:37.290Z,-3.92
2019-01-25T17:17:05.943Z,-3.97
2019-01-25T17:19:34.519Z,-3.97
2019-01-25T17:22:03.407Z,-3.98
2019-01-25T17:24:32.330Z,-4.00
2019-01-25T17:27:00.951Z,-4.03
2019-01-25T17:29:29.570Z,-4.15
2019-01-25T17:31:58.564Z,-3.98
2019-01-25T17:34:27.197Z,-3.96
2019-01-25T17:36:56.149Z,-3.73
2019-01-25T17:39:25.014Z,-3.77
2019-01-25T17:41:53.916Z,-3.71
2019-01-25T17:44:22.542Z,-3.82
2019-01-25T17:46:51.160Z,-3.85
2019-01-25T17:49:19.798Z,-3.67
2019-01-25T17:51:48.404Z,-3.60
2019-01-25T17:54:17.125Z,-3.57
2019-01-25T17:56:45.736Z,-3.46
2019-01-25T17:59:15.402Z,-3.25
2019-01-25T18:04:38.400Z,-3.40
2019-01-25T18:07:07.004Z,-3.47
2019-01-25T18:09:35.622Z,-3.22
2019-01-25T18:12:04.242Z,-3.37
2019-01-25T18:14:33.223Z,-3.30
2019-01-25T18:17:01.821Z,-3.39
2019-01-25T18:19:30.441Z,-3.30
2019-01-25T18:24:37.920Z,-3.26
2019-01-25T18:27:06.540Z,-3.31
2019-01-25T18:29:35.459Z,-3.31
2019-01-25T18:32:04.094Z,-3.29
2019-01-25T18:34:32.727Z,-3.23
2019-01-25T18:37:01.338Z,-3.19
2019-01-25T18:39:29.957Z,-3.22
2019-01-25T18:44:37.434Z,-3.21
2019-01-25T18:47:06.013Z,-3.04
2019-01-25T18:49:34.619Z,-2.94
2019-01-25T18:52:03.545Z,-2.97
2019-01-25T18:54:32.537Z,-2.94
2019-01-25T18:57:01.150Z,-2.81
2019-01-25T18:59:29.772Z,-2.85
2019-01-25T19:04:37.258Z,-2.63
2019-01-25T19:07:05.861Z,-2.65
2019-01-25T19:09:34.491Z,-2.65
2019-01-25T19:12:03.115Z,-2.58
2019-01-25T19:14:31.751Z,-2.59
2019-01-25T19:17:00.357Z,-2.67
2019-01-25T19:19:29.310Z,-2.67
2019-01-25T19:21:57.909Z,-2.58
2019-01-25T19:24:26.885Z,-2.53
2019-01-25T19:26:55.486Z,-2.62
2019-01-25T19:29:24.121Z,-2.53
2019-01-25T19:31:53.030Z,-2.48
2019-01-25T19:34:21.932Z,-2.47
2019-01-25T19:36:50.543Z,-2.36
2019-01-25T19:39:19.496Z,-2.36
2019-01-25T19:41:48.090Z,-2.31
2019-01-25T19:44:16.705Z,-2.20
2019-01-25T19:46:45.311Z,-2.23
2019-01-25T19:49:14.223Z,-2.22
2019-01-25T19:51:43.113Z,-2.21
2019-01-25T19:54:11.748Z,-2.15
2019-01-25T19:56:40.688Z,-2.14
2019-01-25T19:59:09.683Z,-2.10
2019-01-25T20:01:38.674Z,-2.06
2019-01-25T20:04:07.296Z,-2.05
2019-01-25T20:06:35.916Z,-2.04
2019-01-25T20:09:04.792Z,-2.04
2019-01-25T20:11:33.374Z,-2.06
2019-01-25T20:14:02.299Z,-1.97
2019-01-25T20:16:31.183Z,-1.90
2019-01-25T20:18:59.816Z,-1.92
2019-01-25T20:21:28.873Z,-1.88
2019-01-25T20:23:57.851Z,-1.92
2019-01-25T20:26:26.535Z,-1.90
2019-01-25T20:28:55.146Z,-1.86
2019-01-25T20:31:23.796Z,-1.88
2019-01-25T20:33:52.912Z,-1.89
2019-01-25T20:36:21.532Z,-1.82
2019-01-25T20:38:50.565Z,-1.86
2019-01-25T20:41:19.176Z,-1.91
2019-01-25T20:43:47.870Z,-1.70
2019-01-25T20:46:16.442Z,-1.75
2019-01-25T20:48:45.067Z,-1.72
2019-01-25T20:51:13.681Z,-1.65
2019-01-25T20:53:42.306Z,-1.74
2019-01-25T20:56:11.251Z,-1.66
2019-01-25T20:58:40.144Z,-1.69
2019-01-25T21:01:09.033Z,-1.74
2019-01-25T21:03:37.649Z,-1.76
2019-01-25T21:06:06.270Z,-1.63
2019-01-25T21:08:34.877Z,-1.65
2019-01-25T21:11:03.485Z,-1.51
2019-01-25T21:13:32.454Z,-1.61
2019-01-25T21:16:01.088Z,-1.66
2019-01-25T21:18:29.709Z,-1.66
2019-01-25T21:20:58.378Z,-1.64
2019-01-25T21:23:27.297Z,-1.66
2019-01-25T21:25:55.906Z,-1.57
2019-01-25T21:28:24.861Z,-1.62
2019-01-25T21:30:53.506Z,-1.72
2019-01-25T21:33:22.111Z,-1.66
2019-01-25T21:35:50.729Z,-1.58
2019-01-25T21:38:19.335Z,-1.61
2019-01-25T21:43:26.483Z,-1.59
2019-01-25T21:45:55.096Z,-1.57
2019-01-25T21:48:24.093Z,-1.59
2019-01-25T21:50:52.676Z,-1.65
2019-01-25T21:53:21.629Z,-1.62
2019-01-25T21:55:50.258Z,-1.60
2019-01-25T21:58:18.876Z,-1.58
2019-01-25T22:00:47.511Z,-1.50
2019-01-25T22:03:16.121Z,-1.57
2019-01-25T22:05:45.055Z,-1.56
2019-01-25T22:08:13.950Z,-1.48
2019-01-25T22:10:43.927Z,-1.45
2019-01-25T22:13:11.220Z,-1.52
2019-01-25T22:15:39.902Z,-1.46
2019-01-25T22:18:08.515Z,-1.48
2019-01-25T22:20:37.136Z,-1.38
2019-01-25T22:23:06.045Z,-1.39
2019-01-25T22:25:34.663Z,-1.37
2019-01-25T22:28:03.623Z,-1.42
2019-01-25T22:30:32.617Z,-1.34
2019-01-25T22:33:01.244Z,-1.44
2019-01-25T22:35:30.201Z,-1.43
2019-01-25T22:37:58.840Z,-1.39
2019-01-25T22:40:27.473Z,-1.40
2019-01-25T22:42:56.131Z,-1.33
2019-01-25T22:48:03.663Z,-1.39
2019-01-25T22:50:32.301Z,-1.34
2019-01-25T22:53:01.203Z,-1.22
2019-01-25T22:55:30.082Z,-1.37
2019-01-25T22:57:58.685Z,-1.33
2019-01-25T23:03:06.177Z,-1.28
2019-01-25T23:08:28.408Z,-1.13
2019-01-25T23:10:57.315Z,-1.24
2019-01-25T23:13:26.204Z,-1.39
2019-01-25T23:15:55.053Z,-1.40
2019-01-25T23:18:23.663Z,-1.33
2019-01-25T23:20:52.298Z,-1.34
2019-01-25T23:23:20.892Z,-1.33
2019-01-25T23:25:49.827Z,-1.30
2019-01-25T23:28:18.720Z,-1.38
2019-01-25T23:30:47.326Z,-1.35
2019-01-25T23:33:15.931Z,-1.26
2019-01-25T23:35:44.539Z,-1.20
2019-01-25T23:38:13.148Z,-1.18
2019-01-25T23:40:41.776Z,-1.13
2019-01-25T23:43:10.717Z,-1.08
2019-01-25T23:45:39.360Z,-1.08
2019-01-25T23:48:07.945Z,-1.01
2019-01-25T23:50:36.666Z,-0.85
2019-01-25T23:53:05.260Z,-0.83
2019-01-25T23:55:33.890Z,-0.78
2019-01-25T23:58:02.480Z,-0.72
